sensor_id;sensor_type;location;lat;lon;timestamp;pressure;altitude;pressure_sealevel;temperature;humidity
20987;BME280;10652;50.306;8.570;2023-02-16T00:02:01;98961.41;;;1.03;100.00
20987;BME280;10652;50.306;8.570;2023-02-16T00:06:03;98968.25;;;0.96;100.00
20987;BME280;10652;50.306;8.570;2023-02-16T00:10:05;98959.63;;;0.97;100.00
20987;BME280;10652;50.306;8.570;2023-02-16T00:14:09;98969.09;;;0.97;100.00
20987;BME280;10652;50.306;8.570;2023-02-16T00:18:16;98970.78;;;0.89;100.00
20987;BME280;10652;50.306;8.570;2023-02-16T00:22:18;98969.00;;;0.82;100.00
20987;BME280;10652;50.306;8.570;2023-02-16T00:26:22;98963.00;;;0.81;100.00
20987;BME280;10652;50.306;8.570;2023-02-16T00:30:25;98954.38;;;0.84;100.00
20987;BME280;10652;50.306;8.570;2023-02-16T00:34:43;98956.97;;;0.84;100.00
20987;BME280;10652;50.306;8.570;2023-02-16T00:38:46;98941.44;;;0.87;100.00
20987;BME280;10652;50.306;8.570;2023-02-16T00:42:48;98939.72;;;0.84;100.00
20987;BME280;10652;50.306;8.570;2023-02-16T00:46:50;98929.41;;;0.89;100.00
20987;BME280;10652;50.306;8.570;2023-02-16T00:50:52;98927.66;;;0.85;100.00
20987;BME280;10652;50.306;8.570;2023-02-16T00:54:55;98930.25;;;0.86;100.00
20987;BME280;10652;50.306;8.570;2023-02-16T00:58:59;98923.41;;;0.93;100.00
20987;BME280;10652;50.306;8.570;2023-02-16T01:03:15;98918.16;;;0.87;100.00
20987;BME280;10652;50.306;8.570;2023-02-16T01:07:19;98923.28;;;0.75;100.00
20987;BME280;10652;50.306;8.570;2023-02-16T01:11:39;98929.31;;;0.72;100.00
20987;BME280;10652;50.306;8.570;2023-02-16T01:15:43;98926.63;;;0.57;100.00
20987;BME280;10652;50.306;8.570;2023-02-16T01:19:45;98933.44;;;0.44;100.00
20987;BME280;10652;50.306;8.570;2023-02-16T01:23:50;98933.34;;;0.34;100.00
20987;BME280;10652;50.306;8.570;2023-02-16T01:27:53;98932.44;;;0.27;100.00
20987;BME280;10652;50.306;8.570;2023-02-16T01:31:55;98940.91;;;0.11;100.00
20987;BME280;10652;50.306;8.570;2023-02-16T01:35:57;98943.41;;;0.02;100.00
20987;BME280;10652;50.306;8.570;2023-02-16T01:39:59;98937.41;;;0.04;100.00
20987;BME280;10652;50.306;8.570;2023-02-16T01:44:13;98933.78;;;-0.14;100.00
20987;BME280;10652;50.306;8.570;2023-02-16T01:48:34;98940.66;;;-0.13;100.00
20987;BME280;10652;50.306;8.570;2023-02-16T01:52:44;98926.97;;;-0.06;100.00
20987;BME280;10652;50.306;8.570;2023-02-16T01:56:52;98917.63;;;0.09;100.00
20987;BME280;10652;50.306;8.570;2023-02-16T02:09:33;98918.69;;;0.31;100.00
20987;BME280;10652;50.306;8.570;2023-02-16T02:13:45;98910.06;;;0.32;100.00
20987;BME280;10652;50.306;8.570;2023-02-16T02:17:49;98915.22;;;0.29;100.00
20987;BME280;10652;50.306;8.570;2023-02-16T02:22:24;98900.59;;;0.33;100.00
20987;BME280;10652;50.306;8.570;2023-02-16T02:27:20;98904.16;;;0.47;100.00
20987;BME280;10652;50.306;8.570;2023-02-16T02:31:49;98894.69;;;0.47;100.00
20987;BME280;10652;50.306;8.570;2023-02-16T02:45:11;98865.44;;;0.56;100.00
20987;BME280;10652;50.306;8.570;2023-02-16T02:49:15;98861.06;;;0.46;100.00
20987;BME280;10652;50.306;8.570;2023-02-16T02:53:18;98871.38;;;0.41;100.00
20987;BME280;10652;50.306;8.570;2023-02-16T02:57:32;98879.06;;;0.34;100.00
20987;BME280;10652;50.306;8.570;2023-02-16T03:01:58;98879.69;;;0.02;100.00
20987;BME280;10652;50.306;8.570;2023-02-16T03:06:06;98877.78;;;-0.22;100.00
20987;BME280;10652;50.306;8.570;2023-02-16T03:10:10;98876.13;;;-0.12;100.00
20987;BME280;10652;50.306;8.570;2023-02-16T03:18:35;98875.38;;;0.01;100.00
20987;BME280;10652;50.306;8.570;2023-02-16T03:22:57;98887.53;;;0.11;100.00
20987;BME280;10652;50.306;8.570;2023-02-16T03:27:21;98879.78;;;0.14;100.00
20987;BME280;10652;50.306;8.570;2023-02-16T03:31:44;98880.78;;;0.27;100.00
20987;BME280;10652;50.306;8.570;2023-02-16T03:35:47;98873.06;;;0.35;100.00
20987;BME280;10652;50.306;8.570;2023-02-16T03:39:50;98861.00;;;0.37;100.00
20987;BME280;10652;50.306;8.570;2023-02-16T03:44:11;98864.44;;;0.37;100.00
20987;BME280;10652;50.306;8.570;2023-02-16T03:48:13;98870.50;;;0.42;100.00
20987;BME280;10652;50.306;8.570;2023-02-16T03:52:15;98857.63;;;0.45;100.00
20987;BME280;10652;50.306;8.570;2023-02-16T03:56:17;98872.25;;;0.43;100.00
20987;BME280;10652;50.306;8.570;2023-02-16T04:00:20;98869.59;;;0.34;100.00
20987;BME280;10652;50.306;8.570;2023-02-16T04:04:22;98867.81;;;0.24;100.00
20987;BME280;10652;50.306;8.570;2023-02-16T04:08:24;98876.47;;;0.29;100.00
20987;BME280;10652;50.306;8.570;2023-02-16T04:12:26;98870.44;;;0.27;100.00
20987;BME280;10652;50.306;8.570;2023-02-16T04:16:37;98872.16;;;0.30;100.00
20987;BME280;10652;50.306;8.570;2023-02-16T04:20:39;98866.13;;;0.26;100.00
20987;BME280;10652;50.306;8.570;2023-02-16T04:24:41;98864.28;;;0.14;100.00
20987;BME280;10652;50.306;8.570;2023-02-16T04:28:43;98877.13;;;0.02;100.00
20987;BME280;10652;50.306;8.570;2023-02-16T04:32:45;98874.53;;;0.02;100.00
20987;BME280;10652;50.306;8.570;2023-02-16T04:36:48;98874.41;;;-0.14;100.00
20987;BME280;10652;50.306;8.570;2023-02-16T04:40:50;98885.59;;;-0.15;100.00
20987;BME280;10652;50.306;8.570;2023-02-16T04:44:52;98882.22;;;-0.05;100.00
20987;BME280;10652;50.306;8.570;2023-02-16T04:48:54;98878.84;;;0.05;100.00
20987;BME280;10652;50.306;8.570;2023-02-16T04:52:56;98874.63;;;0.13;100.00
20987;BME280;10652;50.306;8.570;2023-02-16T04:56:59;98874.72;;;0.25;100.00
20987;BME280;10652;50.306;8.570;2023-02-16T05:01:01;98873.88;;;0.29;100.00
20987;BME280;10652;50.306;8.570;2023-02-16T05:05:05;98867.00;;;0.33;100.00
20987;BME280;10652;50.306;8.570;2023-02-16T05:09:07;98871.28;;;0.29;100.00
20987;BME280;10652;50.306;8.570;2023-02-16T05:13:10;98866.97;;;0.25;100.00
20987;BME280;10652;50.306;8.570;2023-02-16T05:17:31;98876.38;;;0.18;100.00
20987;BME280;10652;50.306;8.570;2023-02-16T05:21:33;98881.59;;;0.21;100.00
20987;BME280;10652;50.306;8.570;2023-02-16T05:25:36;98874.69;;;0.20;100.00
20987;BME280;10652;50.306;8.570;2023-02-16T05:29:38;98872.13;;;0.25;100.00
20987;BME280;10652;50.306;8.570;2023-02-16T05:33:40;98873.84;;;0.28;100.00
20987;BME280;10652;50.306;8.570;2023-02-16T05:37:42;98876.41;;;0.23;100.00
20987;BME280;10652;50.306;8.570;2023-02-16T05:41:44;98885.94;;;0.30;100.00
20987;BME280;10652;50.306;8.570;2023-02-16T05:45:46;98901.50;;;0.36;100.00
20987;BME280;10652;50.306;8.570;2023-02-16T05:49:48;98893.78;;;0.42;100.00
20987;BME280;10652;50.306;8.570;2023-02-16T05:53:50;98893.81;;;0.47;100.00
20987;BME280;10652;50.306;8.570;2023-02-16T05:57:53;98879.16;;;0.44;100.00
20987;BME280;10652;50.306;8.570;2023-02-16T06:01:55;98886.03;;;0.42;100.00
20987;BME280;10652;50.306;8.570;2023-02-16T06:05:59;98894.66;;;0.46;100.00
20987;BME280;10652;50.306;8.570;2023-02-16T06:10:03;98891.25;;;0.48;100.00
20987;BME280;10652;50.306;8.570;2023-02-16T06:14:08;98891.25;;;0.48;100.00
20987;BME280;10652;50.306;8.570;2023-02-16T06:18:11;98901.56;;;0.45;100.00
20987;BME280;10652;50.306;8.570;2023-02-16T06:22:13;98913.66;;;0.52;100.00
20987;BME280;10652;50.306;8.570;2023-02-16T06:26:15;98913.69;;;0.55;100.00
20987;BME280;10652;50.306;8.570;2023-02-16T06:30:18;98911.94;;;0.51;100.00
20987;BME280;10652;50.306;8.570;2023-02-16T06:34:20;98923.16;;;0.53;100.00
20987;BME280;10652;50.306;8.570;2023-02-16T06:38:22;98919.66;;;0.47;100.00
20987;BME280;10652;50.306;8.570;2023-02-16T06:42:24;98917.09;;;0.48;100.00
20987;BME280;10652;50.306;8.570;2023-02-16T06:46:26;98929.31;;;0.71;100.00
20987;BME280;10652;50.306;8.570;2023-02-16T06:50:28;98933.53;;;0.61;100.00
20987;BME280;10652;50.306;8.570;2023-02-16T06:54:30;98923.13;;;0.52;100.00
20987;BME280;10652;50.306;8.570;2023-02-16T06:58:32;98923.19;;;0.59;100.00
20987;BME280;10652;50.306;8.570;2023-02-16T07:02:34;98924.06;;;0.60;100.00
20987;BME280;10652;50.306;8.570;2023-02-16T07:06:36;98913.66;;;0.49;100.00
20987;BME280;10652;50.306;8.570;2023-02-16T07:10:42;98903.28;;;0.46;100.00
20987;BME280;10652;50.306;8.570;2023-02-16T07:14:51;98913.69;;;0.55;100.00
20987;BME280;10652;50.306;8.570;2023-02-16T07:18:53;98916.38;;;0.67;100.00
20987;BME280;10652;50.306;8.570;2023-02-16T07:22:55;98910.38;;;0.82;100.00
20987;BME280;10652;50.306;8.570;2023-02-16T07:26:57;98920.88;;;1.03;100.00
20987;BME280;10652;50.306;8.570;2023-02-16T07:31:05;98930.38;;;1.10;100.00
20987;BME280;10652;50.306;8.570;2023-02-16T07:35:08;98927.78;;;1.09;100.00
20987;BME280;10652;50.306;8.570;2023-02-16T07:39:11;98921.69;;;1.01;100.00
20987;BME280;10652;50.306;8.570;2023-02-16T07:43:13;98927.75;;;1.06;100.00
20987;BME280;10652;50.306;8.570;2023-02-16T07:47:15;98932.94;;;1.09;100.00
20987;BME280;10652;50.306;8.570;2023-02-16T07:51:26;98935.56;;;1.13;100.00
20987;BME280;10652;50.306;8.570;2023-02-16T07:55:28;98932.13;;;1.14;100.00
20987;BME280;10652;50.306;8.570;2023-02-16T07:59:30;98933.00;;;1.17;100.00
20987;BME280;10652;50.306;8.570;2023-02-16T08:03:32;98931.25;;;1.19;100.00
20987;BME280;10652;50.306;8.570;2023-02-16T08:07:34;98926.97;;;1.18;100.00
20987;BME280;10652;50.306;8.570;2023-02-16T08:11:36;98934.78;;;1.31;100.00
20987;BME280;10652;50.306;8.570;2023-02-16T08:15:41;98937.41;;;1.43;100.00
20987;BME280;10652;50.306;8.570;2023-02-16T08:19:44;98931.41;;;1.56;100.00
20987;BME280;10652;50.306;8.570;2023-02-16T08:24:00;98937.50;;;1.71;99.59
20987;BME280;10652;50.306;8.570;2023-02-16T08:28:03;98943.53;;;1.70;96.76
20987;BME280;10652;50.306;8.570;2023-02-16T08:32:10;98939.22;;;1.70;95.37
20987;BME280;10652;50.306;8.570;2023-02-16T08:36:28;98944.41;;;1.73;93.94
20987;BME280;10652;50.306;8.570;2023-02-16T08:40:30;98936.63;;;1.78;93.29
20987;BME280;10652;50.306;8.570;2023-02-16T08:44:32;98930.63;;;1.88;92.73
20987;BME280;10652;50.306;8.570;2023-02-16T08:48:34;98929.78;;;2.01;92.40
20987;BME280;10652;50.306;8.570;2023-02-16T08:52:36;98934.97;;;2.19;92.04
20987;BME280;10652;50.306;8.570;2023-02-16T08:56:39;98945.34;;;2.37;91.81
20987;BME280;10652;50.306;8.570;2023-02-16T09:00:42;98938.44;;;2.61;90.67
20987;BME280;10652;50.306;8.570;2023-02-16T09:04:44;98945.34;;;2.71;88.65
20987;BME280;10652;50.306;8.570;2023-02-16T09:08:55;98945.34;;;2.68;86.84
20987;BME280;10652;50.306;8.570;2023-02-16T09:12:57;98947.94;;;2.71;86.47
20987;BME280;10652;50.306;8.570;2023-02-16T09:16:59;98950.50;;;2.89;87.06
20987;BME280;10652;50.306;8.570;2023-02-16T09:21:06;98947.00;;;3.02;86.93
20987;BME280;10652;50.306;8.570;2023-02-16T09:25:12;98944.34;;;3.14;86.75
20987;BME280;10652;50.306;8.570;2023-02-16T09:29:14;98946.03;;;3.35;86.65
20987;BME280;10652;50.306;8.570;2023-02-16T09:33:16;98945.06;;;3.56;86.46
20987;BME280;10652;50.306;8.570;2023-02-16T09:37:18;98953.63;;;3.79;86.88
20987;BME280;10652;50.306;8.570;2023-02-16T09:45:44;98971.03;;;3.62;86.64
20987;BME280;10652;50.306;8.570;2023-02-16T09:49:48;98976.13;;;3.77;87.66
20987;BME280;10652;50.306;8.570;2023-02-16T09:53:58;98960.53;;;3.89;86.90
20987;BME280;10652;50.306;8.570;2023-02-16T09:58:18;98955.28;;;3.98;86.96
20987;BME280;10652;50.306;8.570;2023-02-16T10:02:37;98945.66;;;4.12;86.70
20987;BME280;10652;50.306;8.570;2023-02-16T10:07:10;98954.25;;;4.22;85.96
20987;BME280;10652;50.306;8.570;2023-02-16T10:11:30;98951.41;;;4.51;86.64
20987;BME280;10652;50.306;8.570;2023-02-16T10:15:40;98947.56;;;4.91;85.60
20987;BME280;10652;50.306;8.570;2023-02-16T10:19:51;98954.41;;;5.00;82.22
20987;BME280;10652;50.306;8.570;2023-02-16T10:24:03;98956.19;;;4.99;82.29
20987;BME280;10652;50.306;8.570;2023-02-16T10:28:21;98955.84;;;5.30;82.09
20987;BME280;10652;50.306;8.570;2023-02-16T10:32:34;98958.81;;;5.68;80.58
20987;BME280;10652;50.306;8.570;2023-02-16T10:36:56;98949.00;;;5.88;78.93
20987;BME280;10652;50.306;8.570;2023-02-16T10:41:27;98945.59;;;5.82;76.80
20987;BME280;10652;50.306;8.570;2023-02-16T10:49:53;98929.63;;;5.45;76.35
20987;BME280;10652;50.306;8.570;2023-02-16T10:54:01;98931.63;;;5.20;76.87
20987;BME280;10652;50.306;8.570;2023-02-16T10:58:14;98927.59;;;4.92;77.58
20987;BME280;10652;50.306;8.570;2023-02-16T11:02:27;98918.03;;;4.92;78.28
20987;BME280;10652;50.306;8.570;2023-02-16T11:06:29;98915.44;;;4.91;78.67
20987;BME280;10652;50.306;8.570;2023-02-16T11:10:50;98915.41;;;4.97;79.66
20987;BME280;10652;50.306;8.570;2023-02-16T11:14:57;98907.47;;;5.07;79.36
20987;BME280;10652;50.306;8.570;2023-02-16T11:19:05;98911.88;;;5.04;79.79
20987;BME280;10652;50.306;8.570;2023-02-16T11:23:24;98897.97;;;5.03;79.64
20987;BME280;10652;50.306;8.570;2023-02-16T11:27:26;98898.69;;;5.14;80.32
20987;BME280;10652;50.306;8.570;2023-02-16T11:31:32;98896.09;;;5.16;79.24
20987;BME280;10652;50.306;8.570;2023-02-16T11:35:41;98888.06;;;5.34;79.85
20987;BME280;10652;50.306;8.570;2023-02-16T11:39:57;98886.22;;;5.41;78.24
20987;BME280;10652;50.306;8.570;2023-02-16T11:44:01;98899.34;;;5.32;78.29
20987;BME280;10652;50.306;8.570;2023-02-16T11:48:06;98896.84;;;5.26;78.42
20987;BME280;10652;50.306;8.570;2023-02-16T11:56:26;98877.69;;;5.30;79.52
20987;BME280;10652;50.306;8.570;2023-02-16T12:00:29;98884.69;;;5.25;79.98
20987;BME280;10652;50.306;8.570;2023-02-16T12:08:50;98875.88;;;5.35;81.44
20987;BME280;10652;50.306;8.570;2023-02-16T12:13:07;98867.78;;;5.54;80.72
20987;BME280;10652;50.306;8.570;2023-02-16T12:17:20;98873.13;;;5.45;80.02
20987;BME280;10652;50.306;8.570;2023-02-16T12:21:43;98855.66;;;5.52;81.11
20987;BME280;10652;50.306;8.570;2023-02-16T12:34:26;98838.56;;;5.91;82.12
20987;BME280;10652;50.306;8.570;2023-02-16T12:38:39;98842.78;;;5.99;81.07
20987;BME280;10652;50.306;8.570;2023-02-16T12:47:01;98847.09;;;6.00;80.48
20987;BME280;10652;50.306;8.570;2023-02-16T12:51:09;98840.06;;;6.05;79.92
20987;BME280;10652;50.306;8.570;2023-02-16T12:59:56;98825.56;;;5.89;80.56
20987;BME280;10652;50.306;8.570;2023-02-16T13:08:47;98810.66;;;5.97;81.53
20987;BME280;10652;50.306;8.570;2023-02-16T13:12:58;98807.84;;;6.10;81.94
20987;BME280;10652;50.306;8.570;2023-02-16T13:17:09;98800.44;;;6.36;82.53
20987;BME280;10652;50.306;8.570;2023-02-16T13:26:16;98772.53;;;6.85;80.75
20987;BME280;10652;50.306;8.570;2023-02-16T13:35:00;98780.19;;;6.93;79.22
20987;BME280;10652;50.306;8.570;2023-02-16T13:39:09;98772.38;;;6.91;79.65
20987;BME280;10652;50.306;8.570;2023-02-16T13:43:32;98766.38;;;6.86;79.13
20987;BME280;10652;50.306;8.570;2023-02-16T13:47:39;98775.06;;;6.88;79.75
20987;BME280;10652;50.306;8.570;2023-02-16T13:51:43;98775.75;;;6.98;79.54
20987;BME280;10652;50.306;8.570;2023-02-16T13:55:47;98761.72;;;7.02;79.41
20987;BME280;10652;50.306;8.570;2023-02-16T14:00:00;98747.66;;;7.08;79.21
20987;BME280;10652;50.306;8.570;2023-02-16T14:04:08;98748.47;;;7.10;79.59
20987;BME280;10652;50.306;8.570;2023-02-16T14:08:31;98748.47;;;7.10;79.19
20987;BME280;10652;50.306;8.570;2023-02-16T14:12:37;98744.22;;;7.06;78.77
20987;BME280;10652;50.306;8.570;2023-02-16T14:16:40;98745.25;;;6.99;78.61
20987;BME280;10652;50.306;8.570;2023-02-16T14:20:42;98743.50;;;6.99;79.29
20987;BME280;10652;50.306;8.570;2023-02-16T14:24:51;98740.63;;;7.11;79.89
20987;BME280;10652;50.306;8.570;2023-02-16T14:29:14;98748.94;;;7.28;79.54
20987;BME280;10652;50.306;8.570;2023-02-16T14:33:22;98751.25;;;7.41;78.82
20987;BME280;10652;50.306;8.570;2023-02-16T14:41:47;98750.88;;;7.57;78.34
20987;BME280;10652;50.306;8.570;2023-02-16T14:50:06;98751.78;;;7.56;78.59
20987;BME280;10652;50.306;8.570;2023-02-16T14:59:08;98738.78;;;7.53;79.01
20987;BME280;10652;50.306;8.570;2023-02-16T15:03:17;98735.22;;;7.56;79.04
20987;BME280;10652;50.306;8.570;2023-02-16T15:07:20;98745.56;;;7.60;78.74
20987;BME280;10652;50.306;8.570;2023-02-16T15:11:35;98749.91;;;7.61;78.50
20987;BME280;10652;50.306;8.570;2023-02-16T15:15:59;98741.22;;;7.59;78.31
20987;BME280;10652;50.306;8.570;2023-02-16T15:20:36;98746.34;;;7.64;78.99
20987;BME280;10652;50.306;8.570;2023-02-16T15:24:40;98743.84;;;7.59;78.60
20987;BME280;10652;50.306;8.570;2023-02-16T15:29:00;98742.25;;;7.54;78.76
20987;BME280;10652;50.306;8.570;2023-02-16T15:33:05;98746.63;;;7.53;79.32
20987;BME280;10652;50.306;8.570;2023-02-16T15:37:29;98736.16;;;7.53;79.49
20987;BME280;10652;50.306;8.570;2023-02-16T15:41:36;98740.56;;;7.51;80.07
20987;BME280;10652;50.306;8.570;2023-02-16T15:45:38;98740.69;;;7.45;80.46
20987;BME280;10652;50.306;8.570;2023-02-16T15:49:41;98739.09;;;7.40;81.41
20987;BME280;10652;50.306;8.570;2023-02-16T15:54:17;98729.50;;;7.40;82.59
20987;BME280;10652;50.306;8.570;2023-02-16T15:58:20;98715.53;;;7.41;83.21
20987;BME280;10652;50.306;8.570;2023-02-16T16:02:35;98699.03;;;7.39;83.46
20987;BME280;10652;50.306;8.570;2023-02-16T16:06:39;98700.13;;;7.29;84.13
20987;BME280;10652;50.306;8.570;2023-02-16T16:10:42;98693.81;;;7.39;88.55
20987;BME280;10652;50.306;8.570;2023-02-16T16:14:50;98688.63;;;7.36;85.26
20987;BME280;10652;50.306;8.570;2023-02-16T16:18:54;98688.25;;;7.16;85.18
20987;BME280;10652;50.306;8.570;2023-02-16T16:27:27;98679.22;;;6.92;86.40
20987;BME280;10652;50.306;8.570;2023-02-16T16:31:32;98681.13;;;6.85;86.64
20987;BME280;10652;50.306;8.570;2023-02-16T16:35:40;98680.41;;;6.77;86.88
20987;BME280;10652;50.306;8.570;2023-02-16T16:39:57;98666.59;;;6.72;87.59
20987;BME280;10652;50.306;8.570;2023-02-16T16:44:00;98671.81;;;6.72;87.32
20987;BME280;10652;50.306;8.570;2023-02-16T16:48:20;98688.41;;;6.70;87.41
20987;BME280;10652;50.306;8.570;2023-02-16T16:52:37;98683.22;;;6.68;87.34
20987;BME280;10652;50.306;8.570;2023-02-16T16:56:40;98680.69;;;6.65;87.70
20987;BME280;10652;50.306;8.570;2023-02-16T17:00:42;98682.59;;;6.57;87.47
20987;BME280;10652;50.306;8.570;2023-02-16T17:04:44;98688.00;;;6.48;87.79
20987;BME280;10652;50.306;8.570;2023-02-16T17:08:47;98682.09;;;6.40;88.01
20987;BME280;10652;50.306;8.570;2023-02-16T17:12:55;98684.81;;;6.34;88.57
20987;BME280;10652;50.306;8.570;2023-02-16T17:16:57;98696.28;;;6.24;88.53
20987;BME280;10652;50.306;8.570;2023-02-16T17:21:00;98693.78;;;6.18;89.19
20987;BME280;10652;50.306;8.570;2023-02-16T17:25:02;98692.94;;;6.17;89.75
20987;BME280;10652;50.306;8.570;2023-02-16T17:29:05;98695.56;;;6.16;89.74
20987;BME280;10652;50.306;8.570;2023-02-16T17:33:08;98699.06;;;6.15;90.32
20987;BME280;10652;50.306;8.570;2023-02-16T17:37:11;98705.91;;;6.22;90.40
20987;BME280;10652;50.306;8.570;2023-02-16T17:45:22;98717.06;;;6.28;90.36
20987;BME280;10652;50.306;8.570;2023-02-16T17:49:24;98714.31;;;6.36;90.00
20987;BME280;10652;50.306;8.570;2023-02-16T17:53:27;98700.16;;;6.49;89.01
20987;BME280;10652;50.306;8.570;2023-02-16T17:57:29;98701.63;;;6.62;86.99
20987;BME280;10652;50.306;8.570;2023-02-16T18:01:31;98695.28;;;6.74;85.58
20987;BME280;10652;50.306;8.570;2023-02-16T18:05:36;98688.19;;;6.80;84.48
20987;BME280;10652;50.306;8.570;2023-02-16T18:09:38;98692.38;;;6.87;83.55
20987;BME280;10652;50.306;8.570;2023-02-16T18:13:40;98688.69;;;6.98;82.52
20987;BME280;10652;50.306;8.570;2023-02-16T18:17:42;98684.97;;;7.08;81.74
20987;BME280;10652;50.306;8.570;2023-02-16T18:21:44;98685.66;;;7.14;80.56
20987;BME280;10652;50.306;8.570;2023-02-16T18:25:47;98674.31;;;7.17;79.56
20987;BME280;10652;50.306;8.570;2023-02-16T18:29:49;98671.72;;;7.15;78.62
20987;BME280;10652;50.306;8.570;2023-02-16T18:33:52;98670.94;;;7.12;78.54
20987;BME280;10652;50.306;8.570;2023-02-16T18:37:54;98665.75;;;7.09;78.25
20987;BME280;10652;50.306;8.570;2023-02-16T18:41:56;98671.06;;;7.06;78.63
20987;BME280;10652;50.306;8.570;2023-02-16T18:45:58;98680.75;;;7.01;78.07
20987;BME280;10652;50.306;8.570;2023-02-16T18:50:05;98677.38;;;6.97;77.65
20987;BME280;10652;50.306;8.570;2023-02-16T18:54:07;98668.47;;;7.06;78.09
20987;BME280;10652;50.306;8.570;2023-02-16T18:58:11;98678.09;;;7.04;77.28
20987;BME280;10652;50.306;8.570;2023-02-16T19:02:14;98678.94;;;7.04;77.60
20987;BME280;10652;50.306;8.570;2023-02-16T19:06:16;98694.38;;;7.15;77.79
20987;BME280;10652;50.306;8.570;2023-02-16T19:10:18;98694.19;;;7.22;77.59
20987;BME280;10652;50.306;8.570;2023-02-16T19:14:20;98690.56;;;7.29;77.58
20987;BME280;10652;50.306;8.570;2023-02-16T19:18:22;98698.16;;;7.40;77.29
20987;BME280;10652;50.306;8.570;2023-02-16T19:22:24;98693.59;;;7.48;77.21
20987;BME280;10652;50.306;8.570;2023-02-16T19:26:26;98691.75;;;7.52;77.20
20987;BME280;10652;50.306;8.570;2023-02-16T19:30:28;98695.13;;;7.55;77.27
20987;BME280;10652;50.306;8.570;2023-02-16T19:34:32;98695.88;;;7.60;77.45
20987;BME280;10652;50.306;8.570;2023-02-16T19:38:35;98692.31;;;7.64;77.58
20987;BME280;10652;50.306;8.570;2023-02-16T19:42:37;98693.03;;;7.69;77.75
20987;BME280;10652;50.306;8.570;2023-02-16T19:46:39;98687.72;;;7.72;77.92
20987;BME280;10652;50.306;8.570;2023-02-16T19:50:42;98682.38;;;7.77;77.86
20987;BME280;10652;50.306;8.570;2023-02-16T19:54:44;98685.81;;;7.79;77.92
20987;BME280;10652;50.306;8.570;2023-02-16T19:58:47;98686.84;;;7.73;78.15
20987;BME280;10652;50.306;8.570;2023-02-16T20:02:49;98681.78;;;7.67;78.67
20987;BME280;10652;50.306;8.570;2023-02-16T20:06:52;98672.25;;;7.65;78.95
20987;BME280;10652;50.306;8.570;2023-02-16T20:10:55;98680.19;;;7.60;79.39
20987;BME280;10652;50.306;8.570;2023-02-16T20:14:57;98675.13;;;7.54;79.44
20987;BME280;10652;50.306;8.570;2023-02-16T20:18:59;98671.03;;;7.44;79.86
20987;BME280;10652;50.306;8.570;2023-02-16T20:23:01;98667.72;;;7.36;80.48
20987;BME280;10652;50.306;8.570;2023-02-16T20:27:03;98668.75;;;7.30;81.08
20987;BME280;10652;50.306;8.570;2023-02-16T20:31:10;98659.22;;;7.28;81.72
20987;BME280;10652;50.306;8.570;2023-02-16T20:35:13;98656.69;;;7.25;81.76
20987;BME280;10652;50.306;8.570;2023-02-16T20:39:26;98651.59;;;7.19;82.00
20987;BME280;10652;50.306;8.570;2023-02-16T20:43:28;98657.81;;;7.13;82.13
20987;BME280;10652;50.306;8.570;2023-02-16T20:47:31;98660.50;;;7.12;82.56
20987;BME280;10652;50.306;8.570;2023-02-16T20:51:34;98651.75;;;7.13;82.68
20987;BME280;10652;50.306;8.570;2023-02-16T20:55:36;98644.72;;;7.15;83.13
20987;BME280;10652;50.306;8.570;2023-02-16T20:59:38;98643.75;;;7.19;82.66
20987;BME280;10652;50.306;8.570;2023-02-16T21:03:41;98648.94;;;7.22;82.88
20987;BME280;10652;50.306;8.570;2023-02-16T21:07:43;98647.09;;;7.25;82.70
20987;BME280;10652;50.306;8.570;2023-02-16T21:11:45;98633.09;;;7.28;82.72
20987;BME280;10652;50.306;8.570;2023-02-16T21:15:47;98635.47;;;7.37;82.97
20987;BME280;10652;50.306;8.570;2023-02-16T21:19:49;98633.50;;;7.45;83.20
20987;BME280;10652;50.306;8.570;2023-02-16T21:23:53;98629.88;;;7.52;82.12
20987;BME280;10652;50.306;8.570;2023-02-16T21:27:56;98628.16;;;7.51;81.73
20987;BME280;10652;50.306;8.570;2023-02-16T21:31:58;98625.44;;;7.54;81.88
20987;BME280;10652;50.306;8.570;2023-02-16T21:36:11;98631.59;;;7.53;81.69
20987;BME280;10652;50.306;8.570;2023-02-16T21:40:13;98619.41;;;7.52;81.70
20987;BME280;10652;50.306;8.570;2023-02-16T21:44:34;98622.00;;;7.54;81.63
20987;BME280;10652;50.306;8.570;2023-02-16T21:48:43;98619.31;;;7.55;81.54
20987;BME280;10652;50.306;8.570;2023-02-16T21:52:46;98620.97;;;7.59;81.94
20987;BME280;10652;50.306;8.570;2023-02-16T21:56:49;98612.97;;;7.65;81.49
20987;BME280;10652;50.306;8.570;2023-02-16T22:00:52;98620.66;;;7.71;81.49
20987;BME280;10652;50.306;8.570;2023-02-16T22:04:54;98622.19;;;7.78;81.23
20987;BME280;10652;50.306;8.570;2023-02-16T22:08:58;98622.91;;;7.85;80.84
20987;BME280;10652;50.306;8.570;2023-02-16T22:13:00;98619.34;;;7.88;80.44
20987;BME280;10652;50.306;8.570;2023-02-16T22:17:02;98614.94;;;7.90;80.06
20987;BME280;10652;50.306;8.570;2023-02-16T22:21:07;98624.44;;;7.92;80.13
20987;BME280;10652;50.306;8.570;2023-02-16T22:25:11;98620.94;;;7.93;80.31
20987;BME280;10652;50.306;8.570;2023-02-16T22:29:13;98634.88;;;7.94;80.49
20987;BME280;10652;50.306;8.570;2023-02-16T22:33:16;98625.28;;;7.94;80.77
20987;BME280;10652;50.306;8.570;2023-02-16T22:37:18;98626.16;;;7.93;80.93
20987;BME280;10652;50.306;8.570;2023-02-16T22:41:21;98635.66;;;7.96;80.72
20987;BME280;10652;50.306;8.570;2023-02-16T22:45:23;98635.66;;;7.96;80.88
20987;BME280;10652;50.306;8.570;2023-02-16T22:49:25;98634.81;;;7.95;81.10
20987;BME280;10652;50.306;8.570;2023-02-16T22:53:28;98627.88;;;7.94;81.41
20987;BME280;10652;50.306;8.570;2023-02-16T22:57:34;98628.78;;;7.93;81.77
20987;BME280;10652;50.306;8.570;2023-02-16T23:01:36;98631.53;;;7.89;83.26
20987;BME280;10652;50.306;8.570;2023-02-16T23:05:39;98635.16;;;7.83;84.77
20987;BME280;10652;50.306;8.570;2023-02-16T23:09:42;98631.03;;;7.74;86.77
20987;BME280;10652;50.306;8.570;2023-02-16T23:13:44;98633.03;;;7.65;88.30
20987;BME280;10652;50.306;8.570;2023-02-16T23:17:46;98637.56;;;7.58;90.53
20987;BME280;10652;50.306;8.570;2023-02-16T23:21:49;98628.97;;;7.53;91.96
20987;BME280;10652;50.306;8.570;2023-02-16T23:25:51;98623.78;;;7.52;93.20
20987;BME280;10652;50.306;8.570;2023-02-16T23:29:53;98615.97;;;7.50;94.18